Time;durP1;ratioP1;P1;durP2;ratioP2;P2;SDS_P1;SDS_P2;PMS_P1;PMS_P2;Temp;Humidity;BMP_temperature;BMP_pressure;BME280_temperature;BME280_humidity;BME280_pressure;Samples;Min_cycle;Max_cycle;Signal;HPM_P1;HPM_P2
2022/05/06 00:00:55;;;;;;;5.18;2.10;;;;;;;11.92;64.12;100973.00;5141238;27;20035;-80
2022/05/06 00:03:21;;;;;;;5.93;2.70;;;;;;;11.91;63.96;100971.31;5159312;27;20488;-80
2022/05/06 00:05:46;;;;;;;7.93;2.60;;;;;;;11.89;64.12;100966.13;5158328;27;20026;-80
2022/05/06 00:08:13;;;;;;;5.93;2.47;;;;;;;11.88;64.36;100979.81;5158149;27;20056;-80
2022/05/06 00:10:39;;;;;;;5.90;2.50;;;;;;;11.87;65.01;100968.19;5158273;27;20449;-79
2022/05/06 00:13:04;;;;;;;7.20;2.65;;;;;;;11.85;64.20;100972.94;5159005;27;20030;-79
2022/05/06 00:15:30;;;;;;;7.47;2.72;;;;;;;11.80;64.63;100970.88;5158708;27;20035;-79
2022/05/06 00:17:55;;;;;;;6.87;2.60;;;;;;;11.79;64.35;100984.56;5158574;27;20022;-79
2022/05/06 00:20:20;;;;;;;6.30;2.50;;;;;;;11.73;64.27;100980.75;5158470;27;20035;-79
2022/05/06 00:22:46;;;;;;;5.67;2.47;;;;;;;11.74;65.48;100979.72;5139898;27;20027;-79
2022/05/06 00:25:11;;;;;;;8.03;2.30;;;;;;;11.65;65.47;100980.06;5157810;27;20257;-79
2022/05/06 00:27:43;;;;;;;6.40;2.75;;;;;;;11.67;65.76;100978.00;5158105;27;20406;-79
2022/05/06 00:30:09;;;;;;;6.03;2.67;;;;;;;11.58;65.19;100982.75;5157482;27;20098;-79
2022/05/06 00:32:35;;;;;;;6.18;2.45;;;;;;;11.56;65.91;100976.69;5158843;27;20030;-79
2022/05/06 00:35:00;;;;;;;4.53;2.10;;;;;;;11.51;66.13;100981.84;5158591;27;20023;-79
2022/05/06 00:37:25;;;;;;;4.93;2.38;;;;;;;11.46;66.46;100974.34;5160612;27;20038;-79
2022/05/06 00:39:51;;;;;;;5.43;2.47;;;;;;;11.47;66.61;100978.69;5161608;27;20034;-79
2022/05/06 00:42:16;;;;;;;4.85;1.70;;;;;;;11.30;67.76;100976.50;5161380;27;20030;-79
2022/05/06 00:44:42;;;;;;;5.37;2.47;;;;;;;11.18;68.33;100986.16;5160822;27;20031;-79
2022/05/06 00:47:08;;;;;;;6.05;2.60;;;;;;;11.23;68.01;100979.16;5163869;27;20078;-79
2022/05/06 00:49:35;;;;;;;7.07;2.05;;;;;;;11.14;68.34;100974.94;5168249;27;20038;-79
2022/05/06 00:52:03;;;;;;;6.35;2.67;;;;;;;11.10;68.03;100979.06;5172505;27;20027;-79
2022/05/06 00:54:30;;;;;;;5.50;2.28;;;;;;;11.10;68.66;100981.75;5157076;27;20047;-79
2022/05/06 00:56:56;;;;;;;6.32;2.70;;;;;;;11.07;68.41;100982.16;5176104;27;20053;-80
2022/05/06 00:59:21;;;;;;;6.33;2.67;;;;;;;10.92;69.10;100978.69;5175322;27;20043;-80
2022/05/06 01:01:46;;;;;;;5.47;2.47;;;;;;;10.84;69.18;100981.50;5172813;27;20056;-80
2022/05/06 01:04:14;;;;;;;6.10;2.53;;;;;;;10.70;69.32;100986.78;5168809;27;20280;-80
2022/05/06 01:06:39;;;;;;;7.90;3.08;;;;;;;10.53;69.99;100981.81;5161048;27;20478;-80
2022/05/06 01:09:04;;;;;;;6.63;2.70;;;;;;;10.46;70.59;100986.28;5158889;27;20038;-80
2022/05/06 01:11:31;;;;;;;5.83;2.67;;;;;;;10.45;70.54;100990.84;5138809;27;20038;-80
2022/05/06 01:13:57;;;;;;;5.70;2.80;;;;;;;10.34;71.83;100984.09;5139015;27;20034;-80
2022/05/06 01:16:22;;;;;;;5.78;2.33;;;;;;;10.25;71.94;100982.53;5157398;27;20027;-80
2022/05/06 01:18:48;;;;;;;6.33;2.60;;;;;;;10.20;72.40;100982.28;5157969;27;20034;-80
2022/05/06 01:21:23;;;;;;;5.82;2.47;;;;;;;10.20;72.44;100990.38;5157120;27;20113;-80
2022/05/06 01:23:48;;;;;;;8.93;2.85;;;;;;;10.23;71.39;100987.28;5157357;27;20031;-80
2022/05/06 01:26:13;;;;;;;5.97;2.50;;;;;;;10.22;71.58;100995.53;5157722;27;20031;-80
2022/05/06 01:28:41;;;;;;;6.00;2.73;;;;;;;10.20;71.78;100989.53;5157721;27;20023;-80
2022/05/06 01:31:08;;;;;;;6.70;2.40;;;;;;;10.22;71.37;100982.91;5157258;27;20033;-80
2022/05/06 01:33:35;;;;;;;6.03;2.60;;;;;;;10.20;71.97;100995.75;5157146;27;20037;-80
2022/05/06 01:36:03;;;;;;;5.05;2.25;;;;;;;10.17;71.98;100988.00;5157303;27;20031;-80
2022/05/06 01:38:37;;;;;;;6.20;2.30;;;;;;;10.19;71.66;100996.78;5156622;27;20106;-80
2022/05/06 01:41:05;;;;;;;5.50;2.95;;;;;;;10.21;72.16;100997.41;5164455;27;20031;-80
2022/05/06 01:43:42;;;;;;;6.03;2.70;;;;;;;10.26;72.32;100996.84;5166158;27;20128;-80
2022/05/06 01:46:09;;;;;;;;;;;;;;;10.29;72.18;100999.16;5162208;27;20539;-80
2022/05/06 01:48:35;;;;;;;;;;;;;;;10.33;71.44;101000.47;5159038;27;19907;-80
2022/05/06 01:51:02;;;;;;;6.32;2.40;;;;;;;10.36;71.22;100998.22;5158293;27;19984;-80
2022/05/06 01:53:27;;;;;;;7.47;2.95;;;;;;;10.41;70.84;100992.25;5160048;27;20151;-80
2022/05/06 01:55:52;;;;;;;8.30;2.87;;;;;;;10.49;71.27;101000.22;5160900;27;20042;-80
2022/05/06 01:58:18;;;;;;;6.80;2.80;;;;;;;10.56;70.91;100992.22;5165586;27;20023;-80
2022/05/06 02:00:43;;;;;;;8.43;2.90;;;;;;;10.60;70.15;101005.09;5176457;27;20027;-80
2022/05/06 02:05:16;;;;;;;5.40;2.30;;;;;;;10.70;70.34;101004.81;5176292;27;20091;-80
2022/05/06 02:05:54;;;;;;;7.63;2.80;;;;;;;10.72;69.09;101000.06;5176260;27;20125;-80
2022/05/06 02:08:19;;;;;;;7.50;2.57;;;;;;;10.93;69.53;100999.22;5175339;27;20034;-80
2022/05/06 02:10:45;;;;;;;5.53;2.53;;;;;;;11.12;68.49;100998.56;5170974;27;20035;-80
2022/05/06 02:13:10;;;;;;;8.87;3.60;;;;;;;11.18;68.92;100997.78;5167908;27;20061;-80
2022/05/06 02:15:35;;;;;;;6.30;2.47;;;;;;;11.25;68.45;100998.69;5163240;27;20102;-80
2022/05/06 02:18:01;;;;;;;8.70;2.60;;;;;;;11.27;68.70;100999.34;5159609;27;20738;-80
2022/05/06 02:20:26;;;;;;;15.23;3.63;;;;;;;11.24;68.08;100988.09;5159578;27;20497;-80
2022/05/06 02:22:52;;;;;;;7.82;2.83;;;;;;;11.21;68.68;100994.72;5141585;27;20023;-80
2022/05/06 02:25:17;;;;;;;7.53;3.30;;;;;;;11.13;68.25;100997.53;5159336;27;20054;-80
2022/05/06 02:27:42;;;;;;;6.70;2.43;;;;;;;11.08;68.96;101000.00;5161286;27;20050;-81
2022/05/06 02:35:37;;;;;;;8.13;4.13;;;;;;;10.79;69.54;101000.94;5161484;27;20042;-80
2022/05/06 02:38:02;;;;;;;;;;;;;;;10.80;68.87;100999.94;5163051;27;20034;-81
2022/05/06 02:40:27;;;;;;;7.57;3.13;;;;;;;10.79;68.89;100993.69;5162489;27;19911;-80
2022/05/06 02:42:53;;;;;;;8.53;3.13;;;;;;;10.81;68.68;100998.91;5161806;27;20034;-80
2022/05/06 02:45:18;;;;;;;8.77;3.85;;;;;;;10.78;69.92;100996.59;5161593;27;20034;-80
2022/05/06 02:47:44;;;;;;;8.63;3.33;;;;;;;10.77;69.22;100993.06;5162364;27;20031;-81
2022/05/06 02:50:09;;;;;;;9.65;3.47;;;;;;;10.77;69.27;100995.75;5164348;27;20048;-81
2022/05/06 02:52:34;;;;;;;8.10;3.20;;;;;;;10.77;69.86;101003.00;5162016;27;20038;-81
2022/05/06 02:55:00;;;;;;;9.07;3.00;;;;;;;10.71;69.65;100993.84;5163529;27;20030;-81
2022/05/06 02:57:26;;;;;;;5.83;2.90;;;;;;;10.71;69.80;100985.75;5164416;27;20091;-80
2022/05/06 02:59:52;;;;;;;6.15;2.75;;;;;;;10.67;69.78;100987.16;5164503;27;20465;-80
2022/05/06 03:02:17;;;;;;;9.50;3.20;;;;;;;10.63;70.24;100980.47;5145072;27;20099;-80
2022/05/06 03:04:42;;;;;;;6.90;2.90;;;;;;;10.61;70.78;100984.38;5145097;27;20114;-80
2022/05/06 03:07:08;;;;;;;5.72;2.63;;;;;;;10.54;70.98;100975.41;5163583;27;20030;-80
2022/05/06 03:09:38;;;;;;;6.55;2.75;;;;;;;10.49;71.12;100984.06;5162915;27;20457;-80
2022/05/06 03:12:03;;;;;;;7.20;2.47;;;;;;;10.43;71.83;100985.66;5164358;27;20027;-80
2022/05/06 03:14:29;;;;;;;5.88;2.60;;;;;;;10.41;71.54;100981.47;5164805;27;20027;-80
2022/05/06 03:16:54;;;;;;;6.67;2.93;;;;;;;10.39;71.75;100981.66;5163931;27;20031;-80
2022/05/06 03:19:19;;;;;;;6.23;2.40;;;;;;;10.39;71.47;100984.34;5164685;27;20377;-80
2022/05/06 03:21:51;;;;;;;8.03;2.93;;;;;;;10.30;72.04;100984.66;5165166;27;20039;-80
2022/05/06 03:24:17;;;;;;;6.38;2.30;;;;;;;10.21;72.38;100986.63;5162718;27;20026;-79
2022/05/06 03:26:42;;;;;;;5.93;2.63;;;;;;;10.19;72.30;100980.63;5162226;27;20518;-80
2022/05/06 03:29:09;;;;;;;6.18;2.60;;;;;;;10.16;72.58;100985.50;5162133;27;20035;-80
2022/05/06 03:31:36;;;;;;;5.55;2.22;;;;;;;10.19;72.21;100980.63;5162493;27;20027;-81
2022/05/06 03:34:02;;;;;;;8.07;3.30;;;;;;;10.14;72.51;100983.00;5159923;27;20370;-81
2022/05/06 03:36:28;;;;;;;6.32;2.40;;;;;;;10.07;72.91;100977.53;5160966;27;20030;-79
2022/05/06 03:38:53;;;;;;;5.55;2.53;;;;;;;10.10;72.66;100979.84;5140758;27;20384;-79
2022/05/06 03:41:18;;;;;;;6.07;2.23;;;;;;;10.07;73.39;100979.38;5159432;27;20380;-79
2022/05/06 03:43:44;;;;;;;5.07;2.60;;;;;;;10.08;72.60;100978.34;5159665;27;20090;-79
2022/05/06 03:46:09;;;;;;;8.38;3.13;;;;;;;10.08;73.03;100981.88;5159136;27;20080;-79
2022/05/06 03:48:35;;;;;;;6.67;2.80;;;;;;;10.06;73.25;100989.31;5159098;27;20104;-79
2022/05/06 03:53:44;;;;;;;6.95;2.70;;;;;;;10.03;73.04;100992.38;5160326;27;20113;-80
2022/05/06 03:56:10;;;;;;;5.57;2.53;;;;;;;9.82;73.40;100991.50;5159690;27;20385;-80
2022/05/06 03:58:35;;;;;;;7.60;3.30;;;;;;;9.79;73.69;100994.53;5159423;27;20031;-80
2022/05/06 04:01:02;;;;;;;7.83;2.77;;;;;;;9.75;73.53;100996.75;5159107;27;20026;-83
2022/05/06 04:03:28;;;;;;;6.95;2.80;;;;;;;9.54;74.44;100996.66;5159805;27;20030;-80
2022/05/06 04:05:53;;;;;;;5.88;2.58;;;;;;;9.39;75.26;100997.47;5159039;27;20070;-80
2022/05/06 04:08:19;;;;;;;7.07;2.88;;;;;;;9.11;75.93;101009.00;5140628;27;20083;-80
2022/05/06 04:10:44;;;;;;;8.17;3.37;;;;;;;9.04;76.01;101008.88;5159687;27;20034;-79
2022/05/06 04:13:10;;;;;;;8.73;3.67;;;;;;;8.74;77.52;101002.56;5142312;27;20472;-79
2022/05/06 04:15:36;;;;;;;;;;;;;;;8.96;76.75;101020.53;5145833;27;20025;-78
2022/05/06 04:18:03;;;;;;;12.70;3.53;;;;;;;8.84;77.28;101016.59;5142078;27;19907;-78
2022/05/06 04:23:30;;;;;;;8.40;3.47;;;;;;;8.83;77.12;101017.63;5157088;27;20041;-77
2022/05/06 04:25:56;;;;;;;6.78;3.17;;;;;;;8.89;77.57;101011.53;5160651;27;20031;-79
2022/05/06 04:28:23;;;;;;;;;;;;;;;8.95;77.69;101021.56;5169746;27;20037;-79
2022/05/06 04:30:48;;;;;;;8.98;3.17;;;;;;;9.02;77.09;101011.75;5171009;27;19911;-79
2022/05/06 04:33:13;;;;;;;9.30;2.80;;;;;;;9.12;77.03;101008.00;5171774;27;20037;-79
2022/05/06 04:35:39;;;;;;;9.70;3.30;;;;;;;9.20;76.69;101016.81;5172453;27;20027;-81
2022/05/06 04:38:05;;;;;;;8.20;3.05;;;;;;;9.30;76.59;101016.56;5160329;27;20026;-81
2022/05/06 04:40:30;;;;;;;8.75;3.50;;;;;;;9.42;76.15;101011.59;5161089;27;20026;-81
2022/05/06 04:42:56;;;;;;;7.97;3.67;;;;;;;9.64;75.25;101016.91;5159944;27;20046;-81
2022/05/06 04:45:21;;;;;;;7.30;3.33;;;;;;;9.91;74.58;101020.81;5158241;27;20054;-79
2022/05/06 04:47:46;;;;;;;8.35;3.05;;;;;;;9.91;73.78;101028.88;5158454;27;20479;-78
2022/05/06 04:50:12;;;;;;;8.80;4.10;;;;;;;9.96;73.59;101026.47;5158398;27;20125;-78
2022/05/06 04:52:37;;;;;;;7.97;4.10;;;;;;;9.92;73.45;101027.84;5159405;27;20031;-81
2022/05/06 04:55:03;;;;;;;8.80;3.70;;;;;;;9.94;73.76;101030.38;5140311;27;20069;-80
2022/05/06 04:57:28;;;;;;;10.32;3.70;;;;;;;9.99;74.21;101038.72;5157360;27;20047;-80
2022/05/06 04:59:54;;;;;;;8.47;3.47;;;;;;;10.03;73.38;101030.06;5158102;27;20027;-79
2022/05/06 05:02:20;;;;;;;8.85;3.65;;;;;;;10.14;73.64;101036.84;5157620;27;20110;-78
2022/05/06 05:04:48;;;;;;;8.52;3.50;;;;;;;10.21;73.23;101034.28;5156872;27;20130;-79
2022/05/06 05:07:13;;;;;;;9.10;4.03;;;;;;;10.26;72.96;101040.78;5158646;27;20487;-79
2022/05/06 05:09:39;;;;;;;8.50;3.97;;;;;;;10.37;73.21;101042.16;5168255;27;20022;-79
2022/05/06 05:12:04;;;;;;;8.23;3.90;;;;;;;10.43;72.74;101042.22;5166959;27;20015;-79
2022/05/06 05:14:30;;;;;;;8.50;3.85;;;;;;;10.42;72.45;101045.09;5167082;27;20042;-79
2022/05/06 05:16:55;;;;;;;8.63;3.47;;;;;;;10.47;72.27;101048.06;5168359;27;20022;-81
2022/05/06 05:19:21;;;;;;;9.90;3.73;;;;;;;10.56;72.95;101046.97;5165190;27;20068;-80
2022/05/06 05:21:47;;;;;;;8.65;3.65;;;;;;;10.64;72.33;101041.44;5147239;27;20746;-79
2022/05/06 05:24:13;;;;;;;10.15;3.92;;;;;;;10.73;72.39;101045.69;5149587;27;20437;-82
2022/05/06 05:26:38;;;;;;;8.10;3.67;;;;;;;10.82;72.22;101051.78;5167906;27;20038;-83
2022/05/06 05:29:04;;;;;;;7.53;3.37;;;;;;;10.92;72.07;101049.63;5160949;27;20030;-82
2022/05/06 05:31:30;;;;;;;8.07;4.03;;;;;;;10.96;71.45;101053.59;5164791;27;20014;-82
2022/05/06 05:33:55;;;;;;;7.25;3.50;;;;;;;11.03;71.74;101045.56;5165944;27;20408;-82
2022/05/06 05:36:20;;;;;;;9.43;3.83;;;;;;;11.16;70.79;101048.41;5165381;27;20038;-83
2022/05/06 05:38:46;;;;;;;9.80;3.47;;;;;;;11.22;71.49;101053.03;5145635;27;20027;-82
2022/05/06 05:41:11;;;;;;;8.93;4.13;;;;;;;11.29;70.45;101055.75;5159470;27;20105;-82
2022/05/06 05:49:06;;;;;;;7.75;3.85;;;;;;;11.35;69.51;101065.78;5174882;27;20109;-81
2022/05/06 05:51:34;;;;;;;9.00;4.45;;;;;;;11.35;69.48;101058.53;5171249;27;20031;-79
2022/05/06 05:53:59;;;;;;;11.88;3.97;;;;;;;11.51;70.08;101062.81;5150621;27;20023;-79
2022/05/06 05:56:25;;;;;;;8.20;3.73;;;;;;;11.66;69.96;101063.53;5168371;27;20118;-80
2022/05/06 05:58:51;;;;;;;8.85;3.80;;;;;;;11.68;69.54;101061.50;5169561;27;20031;-79
2022/05/06 06:01:17;;;;;;;7.60;3.58;;;;;;;11.79;69.42;101061.00;5172243;27;20078;-80
2022/05/06 06:03:42;;;;;;;9.55;3.28;;;;;;;11.84;69.80;101060.38;5151257;27;20052;-80
2022/05/06 06:06:08;;;;;;;9.00;4.23;;;;;;;11.92;69.37;101057.53;5145389;27;20030;-80
2022/05/06 06:08:33;;;;;;;9.57;3.95;;;;;;;11.98;69.10;101064.84;5144141;27;20299;-80
2022/05/06 06:11:01;;;;;;;13.00;4.03;;;;;;;12.23;68.12;101065.19;5158839;27;20031;-80
2022/05/06 06:13:27;;;;;;;9.35;4.40;;;;;;;12.27;67.11;101063.75;5138627;27;20384;-80
2022/05/06 06:15:52;;;;;;;10.05;4.50;;;;;;;12.33;67.35;101068.38;5157710;27;20137;-80
2022/05/06 06:18:20;;;;;;;7.77;3.77;;;;;;;12.47;66.77;101063.84;5157401;27;20468;-79
2022/05/06 06:20:45;;;;;;;7.15;3.80;;;;;;;12.59;66.73;101064.94;5157655;27;20030;-80
2022/05/06 06:23:11;;;;;;;9.40;4.53;;;;;;;12.77;66.91;101067.06;5157288;27;20022;-80
2022/05/06 06:25:36;;;;;;;10.57;5.03;;;;;;;13.09;65.74;101065.47;5157081;27;20260;-80
2022/05/06 06:28:02;;;;;;;8.10;3.90;;;;;;;13.32;65.06;101065.97;5157629;27;20059;-80
2022/05/06 06:30:28;;;;;;;8.15;4.20;;;;;;;13.97;62.98;101064.28;5160772;27;20066;-80
2022/05/06 06:32:53;;;;;;;11.40;4.63;;;;;;;14.48;60.57;101063.53;5142637;27;20031;-80
2022/05/06 06:35:22;;;;;;;10.05;4.28;;;;;;;14.63;57.75;101061.38;5143416;27;20480;-81
2022/05/06 06:37:48;;;;;;;9.60;3.90;;;;;;;15.45;54.65;101068.56;5160386;27;20026;-80
2022/05/06 06:40:13;;;;;;;9.13;4.17;;;;;;;15.68;54.40;101078.00;5160964;27;20484;-81
2022/05/06 06:42:41;;;;;;;;;;;;;;;16.65;51.59;101078.06;5161168;27;20057;-81
2022/05/06 06:45:07;;;;;;;13.88;4.47;;;;;;;17.47;49.74;101074.75;5143595;27;19911;-81
2022/05/06 06:47:32;;;;;;;;;;;;;;;16.99;50.16;101076.53;5162625;27;20411;-81
2022/05/06 06:49:58;;;;;;;7.63;3.63;;;;;;;16.86;50.52;101079.41;5144221;27;19907;-80
2022/05/06 06:52:23;;;;;;;;;;;;;;;16.94;50.95;101081.00;5163347;27;20030;-81
2022/05/06 06:54:48;;;;;;;8.73;3.90;;;;;;;17.43;50.77;101084.47;5161676;27;19926;-81
2022/05/06 06:57:13;;;;;;;;;;;;;;;17.39;49.76;101081.38;5161735;27;20280;-81
2022/05/06 06:59:39;;;;;;;8.87;3.93;;;;;;;16.79;51.40;101078.69;5161446;27;19938;-81
2022/05/06 07:02:04;;;;;;;;;;;;;;;17.09;51.15;101078.69;5162162;27;20027;-80
2022/05/06 07:04:29;;;;;;;9.20;3.88;;;;;;;16.79;52.02;101073.25;5160775;27;19950;-80
2022/05/06 07:12:22;;;;;;;10.27;4.28;;;;;;;17.30;50.30;101085.50;5159980;27;20127;-76
2022/05/06 07:14:47;;;;;;;;;;;;;;;17.45;49.17;101085.06;5158273;27;20031;-75
2022/05/06 07:17:14;;;;;;;9.33;3.97;;;;;;;17.12;49.36;101086.41;5157735;27;19917;-76
2022/05/06 07:19:39;;;;;;;8.70;4.30;;;;;;;16.95;50.13;101085.41;5138965;27;20022;-76
2022/05/06 07:22:04;;;;;;;;;;;;;;;16.82;51.83;101085.59;5157752;27;20026;-76
2022/05/06 07:24:30;;;;;;;10.33;4.10;;;;;;;16.96;50.99;101093.34;5157685;27;19911;-75
2022/05/06 07:26:56;;;;;;;;;;;;;;;16.82;51.54;101085.59;5157898;27;20264;-76
2022/05/06 07:29:22;;;;;;;6.13;3.28;;;;;;;16.91;52.33;101095.06;5157382;27;19918;-77
2022/05/06 07:31:47;;;;;;;;;;;;;;;16.88;51.48;101084.63;5158390;27;20027;-76
2022/05/06 07:34:15;;;;;;;9.20;3.83;;;;;;;17.09;50.32;101094.19;5157268;27;19911;-77
2022/05/06 07:36:44;;;;;;;10.98;4.63;;;;;;;16.44;52.16;101096.69;5157041;27;20035;-76
2022/05/06 07:39:11;;;;;;;7.47;4.15;;;;;;;16.60;52.78;101094.19;5157518;27;20080;-76
2022/05/06 07:41:38;;;;;;;7.78;3.95;;;;;;;16.56;52.89;101087.53;5156597;27;20046;-76
2022/05/06 07:44:04;;;;;;;8.05;4.28;;;;;;;16.77;51.64;101085.44;5157351;27;20054;-75
2022/05/06 07:46:29;;;;;;;9.30;4.57;;;;;;;16.87;50.51;101091.97;5138408;27;20026;-76
2022/05/06 07:48:54;;;;;;;;;;;;;;;16.98;50.13;101091.22;5157785;27;20034;-75
2022/05/06 07:51:20;;;;;;;11.23;3.60;;;;;;;17.08;49.98;101090.66;5156862;27;20416;-75
2022/05/06 07:53:45;;;;;;;;;;;;;;;17.16;49.43;101090.31;5158010;27;20109;-76
2022/05/06 07:56:11;;;;;;;9.00;3.50;;;;;;;17.25;49.35;101097.09;5138733;27;19926;-75
2022/05/06 07:58:40;;;;;;;;;;;;;;;17.19;49.27;101092.59;5157057;27;20036;-75
2022/05/06 08:01:06;;;;;;;8.30;3.88;;;;;;;17.10;49.82;101090.41;5138360;27;20332;-76
2022/05/06 08:06:16;;;;;;;8.90;3.53;;;;;;;17.32;48.62;101084.22;5156503;27;20126;-75
2022/05/06 08:08:41;;;;;;;;;;;;;;;17.10;49.18;101087.69;5156662;27;20055;-74
2022/05/06 08:11:07;;;;;;;9.30;4.00;;;;;;;17.29;47.98;101092.84;5156199;27;19915;-75
2022/05/06 08:13:32;;;;;;;;;;;;;;;17.31;48.57;101090.72;5156642;27;20126;-75
2022/05/06 08:15:58;;;;;;;16.63;4.37;;;;;;;17.39;49.09;101089.53;5156230;27;20394;-75
2022/05/06 08:18:24;;;;;;;;;;;;;;;17.35;49.09;101083.75;5156808;27;20252;-75
2022/05/06 08:20:52;;;;;;;7.93;3.58;;;;;;;17.60;47.90;101080.00;5137874;27;20298;-75
2022/05/06 08:23:19;;;;;;;7.95;3.83;;;;;;;17.64;46.63;101084.78;5156477;27;20023;-76
2022/05/06 08:25:45;;;;;;;10.20;3.85;;;;;;;17.65;47.30;101088.31;5156574;27;20062;-76
2022/05/06 08:28:13;;;;;;;;;;;;;;;17.62;47.25;101086.88;5156685;27;20101;-76
2022/05/06 08:30:39;;;;;;;8.10;3.63;;;;;;;17.76;47.25;101087.50;5155984;27;19922;-76
2022/05/06 08:33:04;;;;;;;;;;;;;;;17.59;47.10;101086.50;5156101;27;20051;-76
2022/05/06 08:35:29;;;;;;;8.25;3.67;;;;;;;17.68;47.67;101090.59;5137694;27;19907;-76
2022/05/06 08:37:54;;;;;;;;;;;;;;;17.21;47.99;101085.00;5137623;27;20109;-76
2022/05/06 08:40:29;;;;;;;7.70;3.63;;;;;;;17.06;47.74;101084.59;5155462;27;19918;-76
2022/05/06 08:42:55;;;;;;;8.45;3.30;;;;;;;17.42;46.88;101086.34;5157442;27;20034;-79
2022/05/06 08:50:58;;;;;;;7.20;3.42;;;;;;;18.07;45.06;101088.22;5158032;27;20113;-79
2022/05/06 08:53:29;;;;;;;9.93;3.80;;;;;;;18.03;45.47;101096.06;5158363;27;20121;-79
2022/05/06 08:55:57;;;;;;;8.40;3.95;;;;;;;18.13;45.08;101093.53;5161877;27;20058;-78
2022/05/06 08:58:24;;;;;;;10.13;4.07;;;;;;;18.08;45.06;101090.72;5161864;27;20038;-79
2022/05/06 09:00:50;;;;;;;10.00;3.65;;;;;;;18.24;44.87;101083.72;5140888;27;20031;-79
2022/05/06 09:03:17;;;;;;;8.38;3.83;;;;;;;18.30;45.16;101091.75;5142234;27;20113;-79
2022/05/06 09:06:01;;;;;;;7.63;3.53;;;;;;;18.32;45.10;101084.16;5160598;27;20027;-79
2022/05/06 09:08:42;;;;;;;6.85;3.53;;;;;;;18.44;44.67;101086.88;5163161;27;20027;-79
2022/05/06 09:11:08;;;;;;;7.88;4.03;;;;;;;18.57;44.93;101083.03;5140538;27;20541;-79
2022/05/06 09:13:55;;;;;;;;;;;;;;;18.46;45.36;101078.41;5160357;27;20031;-78
2022/05/06 09:16:41;;;;;;;10.65;5.05;;;;;;;18.31;45.32;101082.50;5161261;27;20321;-79
2022/05/06 09:19:25;;;;;;;10.18;4.82;;;;;;;18.21;46.45;101078.72;5144102;27;20022;-79
2022/05/06 09:22:00;;;;;;;8.95;3.95;;;;;;;18.22;46.39;101070.31;5162383;27;20058;-79
2022/05/06 09:24:29;;;;;;;8.43;4.30;;;;;;;18.33;46.13;101082.25;5161703;27;20019;-78
2022/05/06 09:27:01;;;;;;;9.38;4.05;;;;;;;18.51;45.09;101076.63;5162465;27;20027;-79
2022/05/06 09:29:30;;;;;;;11.23;5.20;;;;;;;18.64;45.21;101081.00;5143689;27;20026;-79
2022/05/06 09:32:12;;;;;;;11.70;5.47;;;;;;;18.59;45.54;101076.31;5162417;27;20030;-79
2022/05/06 09:34:37;;;;;;;12.27;5.82;;;;;;;18.85;45.05;101076.78;5142868;27;20031;-78
2022/05/06 09:37:02;;;;;;;;;;;;;;;18.51;45.84;101084.81;5145043;27;20034;-79
2022/05/06 09:39:27;;;;;;;12.65;6.13;;;;;;;18.31;46.40;101078.94;5162724;27;20371;-78
2022/05/06 09:42:00;;;;;;;;;;;;;;;18.65;45.00;101069.03;5161311;27;20034;-78
2022/05/06 09:44:26;;;;;;;10.98;4.65;;;;;;;18.76;45.66;101081.00;5162166;27;19911;-80
2022/05/06 09:47:10;;;;;;;;;;;;;;;18.81;44.48;101079.19;5159883;27;20023;-79
2022/05/06 09:49:42;;;;;;;10.63;5.15;;;;;;;18.84;44.70;101075.13;5157194;27;19963;-79
2022/05/06 09:52:12;;;;;;;11.18;5.18;;;;;;;19.02;43.50;101073.03;5157386;27;20058;-78
2022/05/06 09:54:41;;;;;;;11.13;5.82;;;;;;;19.08;43.13;101074.81;5156371;27;20029;-78
2022/05/06 09:57:07;;;;;;;13.32;5.72;;;;;;;19.04;43.39;101065.44;5138006;27;20042;-78
2022/05/06 09:59:35;;;;;;;10.98;5.53;;;;;;;18.94;43.62;101078.09;5138193;27;20143;-78
2022/05/06 10:02:00;;;;;;;11.38;5.47;;;;;;;18.48;45.02;101073.56;5138204;27;20030;-79
2022/05/06 10:04:25;;;;;;;10.52;4.78;;;;;;;18.06;46.26;101071.03;5143517;27;20065;-79
2022/05/06 10:06:51;;;;;;;;;;;;;;;18.17;45.82;101064.72;5164130;27;20073;-78
2022/05/06 10:09:22;;;;;;;9.63;4.63;;;;;;;18.29;46.43;101065.53;5144582;27;19954;-78
2022/05/06 10:11:51;;;;;;;11.68;6.20;;;;;;;18.44;45.61;101061.50;5163545;27;20031;-78
2022/05/06 10:14:18;;;;;;;12.70;6.18;;;;;;;18.35;45.96;101070.03;5163132;27;20038;-79
2022/05/06 10:16:43;;;;;;;11.32;6.03;;;;;;;18.43;45.49;101063.38;5144870;27;20022;-78
2022/05/06 10:19:24;;;;;;;;;;;;;;;18.67;43.90;101059.53;5166043;27;20030;-80
2022/05/06 10:21:50;;;;;;;12.45;5.53;;;;;;;18.72;44.52;101056.91;5163976;27;20277;-79
2022/05/06 10:24:16;;;;;;;;;;;;;;;18.78;44.69;101057.84;5163986;27;20027;-78
2022/05/06 10:26:46;;;;;;;14.02;6.68;;;;;;;19.09;44.83;101053.78;5164362;27;20325;-79
2022/05/06 10:32:53;;;;;;;14.25;7.70;;;;;;;19.30;44.80;101052.22;5164435;27;20042;-78
2022/05/06 10:35:35;;;;;;;17.80;9.63;;;;;;;18.90;46.67;101055.06;5156099;27;20042;-78
2022/05/06 10:38:15;;;;;;;18.55;9.27;;;;;;;18.72;47.65;101051.44;5162757;27;20517;-79
2022/05/06 10:40:49;;;;;;;21.02;10.82;;;;;;;18.30;48.95;101050.81;5162904;27;20110;-77
2022/05/06 10:43:42;;;;;;;19.52;10.15;;;;;;;18.20;49.05;101053.34;5161175;27;20101;-77
2022/05/06 10:46:08;;;;;;;21.63;11.82;;;;;;;18.12;49.42;101056.44;5161363;27;20039;-76
2022/05/06 10:48:33;;;;;;;;;;;;;;;17.96;50.04;101054.44;5161540;27;20392;-77
2022/05/06 10:51:19;;;;;;;19.93;11.03;;;;;;;18.00;49.63;101055.63;5161338;27;19918;-78
2022/05/06 10:53:45;;;;;;;20.83;11.40;;;;;;;18.00;49.81;101055.63;5143789;27;20287;-77
2022/05/06 10:56:11;;;;;;;;;;;;;;;18.01;49.92;101058.09;5161699;27;20119;-77
2022/05/06 10:58:36;;;;;;;24.83;11.90;;;;;;;17.99;49.72;101054.78;5160935;27;19918;-77
2022/05/06 11:01:01;;;;;;;;;;;;;;;18.00;49.73;101052.88;5161240;27;20058;-77
2022/05/06 11:03:26;;;;;;;22.50;11.83;;;;;;;17.95;49.48;101052.78;5161659;27;19926;-77
2022/05/06 11:05:52;;;;;;;;;;;;;;;18.01;49.51;101055.38;5161527;27;20053;-77
2022/05/06 11:08:21;;;;;;;21.27;11.13;;;;;;;18.09;50.00;101050.66;5142729;27;19949;-77
2022/05/06 11:10:47;;;;;;;19.42;10.73;;;;;;;18.31;48.19;101041.56;5161389;27;20026;-78
2022/05/06 11:13:12;;;;;;;;;;;;;;;18.67;48.17;101045.06;5162266;27;20027;-78
2022/05/06 11:15:37;;;;;;;24.57;12.13;;;;;;;18.81;47.23;101046.41;5161011;27;19907;-78
2022/05/06 11:18:04;;;;;;;;;;;;;;;18.93;45.76;101041.75;5163117;27;20118;-78
2022/05/06 11:20:31;;;;;;;18.42;9.95;;;;;;;18.91;46.09;101038.44;5162402;27;20269;-80
2022/05/06 11:22:57;;;;;;;21.67;12.00;;;;;;;19.08;43.56;101038.47;5160889;27;20137;-77
2022/05/06 11:25:23;;;;;;;;;;;;;;;18.66;45.34;101027.00;5159160;27;20461;-78
2022/05/06 11:27:53;;;;;;;16.52;10.57;;;;;;;19.00;45.06;101031.47;5139238;27;20305;-78
2022/05/06 11:30:20;;;;;;;19.08;10.27;;;;;;;19.27;44.63;101026.22;5157799;27;20492;-78
2022/05/06 11:32:54;;;;;;;15.85;10.18;;;;;;;19.68;43.89;101022.28;5157855;27;20085;-77
2022/05/06 11:35:39;;;;;;;19.67;10.52;;;;;;;20.00;42.45;101032.56;5157631;27;20026;-78
2022/05/06 11:38:04;;;;;;;16.95;10.30;;;;;;;20.18;41.87;101028.72;5138978;27;20381;-77
2022/05/06 11:40:36;;;;;;;16.63;9.85;;;;;;;20.29;40.02;101020.38;5139015;27;20033;-77
2022/05/06 11:43:07;;;;;;;19.98;9.98;;;;;;;20.12;39.90;101025.06;5158031;27;20034;-77
2022/05/06 11:48:22;;;;;;;14.63;8.25;;;;;;;20.33;39.62;101032.47;5157321;27;20572;-78
2022/05/06 11:50:56;;;;;;;14.80;9.07;;;;;;;20.42;40.60;101017.28;5138594;27;20027;-78
2022/05/06 11:53:26;;;;;;;16.88;8.50;;;;;;;20.60;41.58;101026.25;5157486;27;20023;-78
2022/05/06 11:55:52;;;;;;;17.38;9.77;;;;;;;20.43;41.89;101021.66;5138768;27;20057;-77
2022/05/06 11:58:18;;;;;;;18.55;9.88;;;;;;;20.47;41.96;101012.94;5138823;27;20027;-77
2022/05/06 12:00:44;;;;;;;14.02;8.30;;;;;;;20.38;43.31;101015.31;5157752;27;20031;-77
2022/05/06 12:03:12;;;;;;;14.55;7.80;;;;;;;20.32;42.64;101013.56;5157580;27;20105;-78
2022/05/06 12:05:39;;;;;;;14.45;8.52;;;;;;;20.14;42.58;101011.13;5157663;27;20027;-78
2022/05/06 12:08:05;;;;;;;17.88;9.82;;;;;;;20.37;42.03;101011.75;5157266;27;20031;-76